VLG77G LEBB-LEIB
Flight info
| Callsign | VLG77G |
|---|---|
| Flight time | 1h 10m |
| Altitude | 37000 |
| Route | PPN DCT EXEMU DCT CMA DCT DISVU/N0453F360 M176 RETBA M871 LASPO/N0463F320 Z224 VARUT |
| Aircraft | A319/M-SDE3FGHIRWY/LB1 |
Departure
| Time | 2026-04-30 12:53 |
|---|---|
| Airport | Bilbao Airport (LEBB) |
Arrival
| Time | 2026-04-30 14:03 |
|---|---|
| Airport | Ibiza Airport (LEIB) |
| Time | Latitude | Longitude | Altitude | Speed | Heading |
|---|---|---|---|---|---|
| 2026-04-30 12:38 | 43.30428 | -2.90631 | 124 ft | 0 kts | 26° |
| 2026-04-30 12:42 | 43.30424 | -2.90634 | 127 ft | 3 kts | 27° |
| 2026-04-30 12:42 | 43.30401 | -2.90652 | 125 ft | 4 kts | 35° |
| 2026-04-30 12:42 | 43.30381 | -2.90675 | 125 ft | 4 kts | 55° |
| 2026-04-30 12:42 | 43.30373 | -2.90705 | 125 ft | 3 kts | 110° |
| 2026-04-30 12:43 | 43.30376 | -2.90715 | 124 ft | 0 kts | 116° |
| 2026-04-30 12:46 | 43.30376 | -2.90714 | 124 ft | 0 kts | 116° |
| 2026-04-30 12:46 | 43.30373 | -2.90705 | 125 ft | 2 kts | 116° |
| 2026-04-30 12:46 | 43.30365 | -2.90685 | 123 ft | 3 kts | 116° |
| 2026-04-30 12:47 | 43.30350 | -2.90643 | 123 ft | 6 kts | 116° |
| 2026-04-30 12:47 | 43.30322 | -2.90595 | 127 ft | 7 kts | 142° |
| 2026-04-30 12:47 | 43.30284 | -2.90559 | 125 ft | 7 kts | 146° |
| 2026-04-30 12:47 | 43.30242 | -2.90526 | 125 ft | 7 kts | 163° |
| 2026-04-30 12:48 | 43.30197 | -2.90542 | 125 ft | 7 kts | 205° |
| 2026-04-30 12:48 | 43.30153 | -2.90574 | 127 ft | 7 kts | 211° |
| 2026-04-30 12:48 | 43.30114 | -2.90608 | 126 ft | 6 kts | 213° |
| 2026-04-30 12:48 | 43.30082 | -2.90654 | 126 ft | 7 kts | 242° |
| 2026-04-30 12:49 | 43.30079 | -2.90722 | 128 ft | 7 kts | 273° |
| 2026-04-30 12:49 | 43.30084 | -2.90795 | 128 ft | 8 kts | 278° |
| 2026-04-30 12:49 | 43.30094 | -2.90880 | 123 ft | 10 kts | 278° |
| 2026-04-30 12:49 | 43.30102 | -2.90976 | 125 ft | 11 kts | 276° |
| 2026-04-30 12:50 | 43.30114 | -2.91112 | 127 ft | 16 kts | 276° |
| 2026-04-30 12:50 | 43.30126 | -2.91259 | 127 ft | 16 kts | 276° |
| 2026-04-30 12:50 | 43.30139 | -2.91407 | 125 ft | 16 kts | 276° |
| 2026-04-30 12:50 | 43.30151 | -2.91556 | 123 ft | 16 kts | 276° |
| 2026-04-30 12:51 | 43.30163 | -2.91704 | 125 ft | 16 kts | 277° |
| 2026-04-30 12:51 | 43.30176 | -2.91842 | 127 ft | 13 kts | 277° |
| 2026-04-30 12:51 | 43.30181 | -2.91902 | 124 ft | 0 kts | 277° |
| 2026-04-30 12:52 | 43.30184 | -2.91941 | 127 ft | 23 kts | 276° |
| 2026-04-30 12:52 | 43.30234 | -2.92527 | 125 ft | 96 kts | 277° |
| 2026-04-30 12:53 | 43.30336 | -2.93712 | 213 ft | 143 kts | 277° |
| 2026-04-30 12:53 | 43.30454 | -2.94947 | 1019 ft | 123 kts | 279° |
| 2026-04-30 12:53 | 43.30580 | -2.96158 | 1325 ft | 134 kts | 282° |
| 2026-04-30 12:53 | 43.30739 | -2.97374 | 1854 ft | 123 kts | 283° |
| 2026-04-30 12:54 | 43.30919 | -2.98664 | 1693 ft | 171 kts | 284° |
| 2026-04-30 12:54 | 43.31210 | -3.00237 | 2377 ft | 153 kts | 287° |
| 2026-04-30 12:54 | 43.31501 | -3.01530 | 3180 ft | 136 kts | 290° |
| 2026-04-30 12:54 | 43.31816 | -3.02860 | 3487 ft | 161 kts | 287° |
| 2026-04-30 12:55 | 43.32089 | -3.04333 | 4232 ft | 151 kts | 283° |
| 2026-04-30 12:55 | 43.32281 | -3.05776 | 4831 ft | 162 kts | 272° |
| 2026-04-30 12:55 | 43.32333 | -3.07424 | 5235 ft | 184 kts | 270° |
| 2026-04-30 12:55 | 43.32387 | -3.09296 | 5723 ft | 208 kts | 271° |
| 2026-04-30 12:56 | 43.32714 | -3.11344 | 6263 ft | 235 kts | 294° |
| 2026-04-30 12:56 | 43.33818 | -3.13150 | 6790 ft | 264 kts | 326° |
| 2026-04-30 12:56 | 43.35618 | -3.13945 | 7474 ft | 283 kts | 358° |
| 2026-04-30 12:56 | 43.37555 | -3.13343 | 8424 ft | 292 kts | 26° |
| 2026-04-30 12:57 | 43.39329 | -3.11969 | 9531 ft | 294 kts | 33° |
| 2026-04-30 12:57 | 43.40979 | -3.10285 | 10558 ft | 298 kts | 40° |
| 2026-04-30 12:57 | 43.42502 | -3.08311 | 11446 ft | 308 kts | 45° |
| 2026-04-30 12:57 | 43.43927 | -3.05956 | 11876 ft | 333 kts | 53° |
| 2026-04-30 12:58 | 43.45189 | -3.03138 | 12243 ft | 358 kts | 62° |
| 2026-04-30 12:58 | 43.46177 | -2.99901 | 12756 ft | 375 kts | 71° |
| 2026-04-30 12:58 | 43.46808 | -2.96380 | 13570 ft | 382 kts | 80° |
| 2026-04-30 12:58 | 43.47041 | -2.92764 | 14364 ft | 388 kts | 89° |
| 2026-04-30 12:59 | 43.46848 | -2.89023 | 15084 ft | 395 kts | 98° |
| 2026-04-30 12:59 | 43.46197 | -2.85314 | 15752 ft | 402 kts | 108° |
| 2026-04-30 12:59 | 43.45083 | -2.81753 | 16403 ft | 408 kts | 118° |
| 2026-04-30 12:59 | 43.43525 | -2.78468 | 17016 ft | 413 kts | 129° |
| 2026-04-30 13:00 | 43.41550 | -2.75564 | 17612 ft | 418 kts | 140° |
| 2026-04-30 13:00 | 43.39241 | -2.73116 | 18163 ft | 422 kts | 146° |
| 2026-04-30 13:00 | 43.37010 | -2.70446 | 18694 ft | 429 kts | 135° |
| 2026-04-30 13:00 | 43.35167 | -2.67198 | 19240 ft | 434 kts | 123° |
| 2026-04-30 13:01 | 43.33817 | -2.63479 | 19749 ft | 439 kts | 111° |
| 2026-04-30 13:01 | 43.33044 | -2.59404 | 20273 ft | 442 kts | 98° |
| 2026-04-30 13:01 | 43.32753 | -2.55183 | 20774 ft | 445 kts | 94° |
| 2026-04-30 13:01 | 43.32496 | -2.50941 | 21248 ft | 448 kts | 95° |
| 2026-04-30 13:02 | 43.32230 | -2.46662 | 21714 ft | 451 kts | 95° |
| 2026-04-30 13:02 | 43.31953 | -2.42355 | 22175 ft | 454 kts | 95° |
| 2026-04-30 13:02 | 43.31655 | -2.38024 | 22633 ft | 457 kts | 97° |
| 2026-04-30 13:02 | 43.30981 | -2.33757 | 23062 ft | 459 kts | 108° |
| 2026-04-30 13:03 | 43.29782 | -2.29702 | 23495 ft | 460 kts | 119° |
| 2026-04-30 13:03 | 43.28110 | -2.25971 | 23841 ft | 460 kts | 129° |
| 2026-04-30 13:03 | 43.26000 | -2.22677 | 24168 ft | 459 kts | 140° |
| 2026-04-30 13:03 | 43.23535 | -2.19920 | 24520 ft | 458 kts | 147° |
| 2026-04-30 13:04 | 43.20951 | -2.17340 | 24891 ft | 460 kts | 147° |
| 2026-04-30 13:04 | 43.18357 | -2.14756 | 25279 ft | 461 kts | 147° |
| 2026-04-30 13:04 | 43.15790 | -2.12201 | 25617 ft | 463 kts | 147° |
| 2026-04-30 13:04 | 43.13178 | -2.09601 | 25924 ft | 465 kts | 147° |
| 2026-04-30 13:05 | 43.10559 | -2.06989 | 26226 ft | 468 kts | 147° |
| 2026-04-30 13:05 | 43.07922 | -2.04356 | 26573 ft | 470 kts | 147° |
| 2026-04-30 13:05 | 43.05274 | -2.01712 | 26906 ft | 472 kts | 147° |
| 2026-04-30 13:06 | 42.99939 | -1.96410 | 27494 ft | 476 kts | 148° |
| 2026-04-30 13:06 | 42.97254 | -1.93749 | 27845 ft | 477 kts | 148° |
| 2026-04-30 13:06 | 42.94560 | -1.91083 | 28154 ft | 479 kts | 148° |
| 2026-04-30 13:06 | 42.91860 | -1.88414 | 28444 ft | 481 kts | 148° |
| 2026-04-30 13:07 | 42.89143 | -1.85729 | 28719 ft | 483 kts | 148° |
| 2026-04-30 13:07 | 42.86422 | -1.83040 | 29055 ft | 483 kts | 148° |
| 2026-04-30 13:07 | 42.83701 | -1.80355 | 29459 ft | 482 kts | 148° |
| 2026-04-30 13:07 | 42.80990 | -1.77688 | 29860 ft | 481 kts | 148° |
| 2026-04-30 13:08 | 42.78262 | -1.75010 | 30228 ft | 481 kts | 148° |
| 2026-04-30 13:08 | 42.75471 | -1.72526 | 30539 ft | 477 kts | 155° |
| 2026-04-30 13:08 | 42.72486 | -1.70623 | 30854 ft | 471 kts | 164° |
| 2026-04-30 13:08 | 42.69369 | -1.69342 | 31186 ft | 465 kts | 173° |
| 2026-04-30 13:09 | 42.66198 | -1.68583 | 31526 ft | 462 kts | 176° |
| 2026-04-30 13:09 | 42.63025 | -1.67886 | 31863 ft | 462 kts | 176° |
| 2026-04-30 13:09 | 42.59853 | -1.67187 | 32180 ft | 461 kts | 176° |
| 2026-04-30 13:09 | 42.56690 | -1.66491 | 32535 ft | 460 kts | 176° |
| 2026-04-30 13:10 | 42.53520 | -1.65794 | 32896 ft | 459 kts | 177° |
| 2026-04-30 13:10 | 42.50407 | -1.65107 | 33251 ft | 459 kts | 177° |
| 2026-04-30 13:10 | 42.47257 | -1.64410 | 33591 ft | 458 kts | 177° |
| 2026-04-30 13:10 | 42.44112 | -1.63709 | 33926 ft | 458 kts | 177° |
| 2026-04-30 13:11 | 42.40969 | -1.63011 | 34234 ft | 457 kts | 177° |
| 2026-04-30 13:11 | 42.37833 | -1.62316 | 34526 ft | 456 kts | 177° |
| 2026-04-30 13:11 | 42.34705 | -1.61628 | 34860 ft | 454 kts | 177° |
| 2026-04-30 13:11 | 42.31590 | -1.60945 | 35155 ft | 453 kts | 177° |
| 2026-04-30 13:12 | 42.28476 | -1.60264 | 35442 ft | 453 kts | 177° |
| 2026-04-30 13:12 | 42.25365 | -1.59582 | 35716 ft | 452 kts | 177° |
| 2026-04-30 13:12 | 42.23308 | -1.59131 | 35894 ft | 452 kts | 177° |
| 2026-04-30 13:13 | 42.17118 | -1.57772 | 36414 ft | 450 kts | 176° |
| 2026-04-30 13:13 | 42.13027 | -1.56874 | 36788 ft | 448 kts | 176° |
| 2026-04-30 13:13 | 42.06856 | -1.55519 | 37061 ft | 452 kts | 176° |
| 2026-04-30 13:14 | 42.04748 | -1.55060 | 37057 ft | 456 kts | 176° |
| 2026-04-30 13:14 | 41.95207 | -1.53002 | 37056 ft | 470 kts | 176° |
| 2026-04-30 13:15 | 41.85422 | -1.50859 | 37393 ft | 476 kts | 176° |
| 2026-04-30 13:15 | 41.82202 | -1.50129 | 37671 ft | 474 kts | 176° |
| 2026-04-30 13:16 | 41.78947 | -1.49378 | 37874 ft | 474 kts | 175° |
| 2026-04-30 13:16 | 41.72435 | -1.47797 | 38058 ft | 478 kts | 174° |
| 2026-04-30 13:17 | 41.65876 | -1.46071 | 38205 ft | 482 kts | 174° |
| 2026-04-30 13:17 | 41.62610 | -1.45169 | 38268 ft | 475 kts | 174° |
| 2026-04-30 13:17 | 41.56139 | -1.43403 | 37831 ft | 474 kts | 174° |
| 2026-04-30 13:18 | 41.52894 | -1.42615 | 37544 ft | 474 kts | 175° |
| 2026-04-30 13:18 | 41.46351 | -1.41280 | 37000 ft | 475 kts | 177° |
| 2026-04-30 13:18 | 41.43067 | -1.40679 | 36755 ft | 476 kts | 178° |
| 2026-04-30 13:19 | 41.36499 | -1.39635 | 36781 ft | 478 kts | 179° |
| 2026-04-30 13:19 | 41.29856 | -1.38625 | 37077 ft | 477 kts | 178° |
| 2026-04-30 13:20 | 41.26558 | -1.38064 | 37204 ft | 478 kts | 177° |
| 2026-04-30 13:20 | 41.23273 | -1.37378 | 37085 ft | 476 kts | 175° |
| 2026-04-30 13:20 | 41.20031 | -1.36597 | 36564 ft | 471 kts | 174° |
| 2026-04-30 13:20 | 41.16853 | -1.35814 | 36447 ft | 455 kts | 175° |
| 2026-04-30 13:21 | 41.13794 | -1.35142 | 36485 ft | 438 kts | 177° |
| 2026-04-30 13:21 | 41.10772 | -1.34604 | 36491 ft | 440 kts | 178° |
| 2026-04-30 13:22 | 41.01644 | -1.32998 | 36489 ft | 444 kts | 176° |
| 2026-04-30 13:22 | 40.92484 | -1.31043 | 36487 ft | 445 kts | 176° |
| 2026-04-30 13:23 | 40.83354 | -1.28995 | 36482 ft | 443 kts | 174° |
| 2026-04-30 13:24 | 40.71266 | -1.25598 | 36501 ft | 444 kts | 173° |
| 2026-04-30 13:25 | 40.59169 | -1.22283 | 36534 ft | 443 kts | 173° |
| 2026-04-30 13:26 | 40.44097 | -1.18222 | 36559 ft | 442 kts | 173° |
| 2026-04-30 13:28 | 40.29038 | -1.14162 | 36543 ft | 442 kts | 173° |
| 2026-04-30 13:28 | 40.19990 | -1.11732 | 36524 ft | 442 kts | 173° |
| 2026-04-30 13:29 | 40.07957 | -1.08517 | 36496 ft | 441 kts | 173° |
| 2026-04-30 13:31 | 39.92942 | -1.04524 | 36518 ft | 439 kts | 173° |
| 2026-04-30 13:32 | 39.78014 | -1.00561 | 36525 ft | 438 kts | 173° |
| 2026-04-30 13:33 | 39.66096 | -0.97339 | 36525 ft | 438 kts | 172° |
| 2026-04-30 13:34 | 39.57194 | -0.94666 | 36507 ft | 438 kts | 171° |
| 2026-04-30 13:34 | 39.48388 | -0.91599 | 36501 ft | 442 kts | 159° |
| 2026-04-30 13:35 | 39.45721 | -0.89569 | 36503 ft | 449 kts | 148° |
| 2026-04-30 13:35 | 39.41318 | -0.83742 | 36501 ft | 461 kts | 128° |
| 2026-04-30 13:36 | 39.37928 | -0.76661 | 36501 ft | 464 kts | 124° |
| 2026-04-30 13:36 | 39.33225 | -0.65686 | 36498 ft | 465 kts | 123° |
| 2026-04-30 13:37 | 39.28583 | -0.54745 | 36502 ft | 468 kts | 117° |
| 2026-04-30 13:38 | 39.26631 | -0.46706 | 36957 ft | 471 kts | 108° |
| 2026-04-30 13:38 | 39.25776 | -0.42619 | 37051 ft | 472 kts | 108° |
| 2026-04-30 13:39 | 39.22376 | -0.26269 | 37066 ft | 472 kts | 108° |
| 2026-04-30 13:40 | 39.19798 | -0.14025 | 37069 ft | 471 kts | 109° |
| 2026-04-30 13:40 | 39.18065 | -0.05871 | 36781 ft | 472 kts | 109° |
| 2026-04-30 13:40 | 39.17205 | -0.01829 | 36554 ft | 462 kts | 109° |
| 2026-04-30 13:41 | 39.16372 | 0.02100 | 36445 ft | 449 kts | 109° |
| 2026-04-30 13:41 | 39.15560 | 0.05922 | 36342 ft | 436 kts | 109° |
| 2026-04-30 13:41 | 39.14768 | 0.09644 | 36245 ft | 426 kts | 109° |
| 2026-04-30 13:42 | 39.13206 | 0.16941 | 35827 ft | 423 kts | 109° |
| 2026-04-30 13:42 | 39.12423 | 0.20567 | 35073 ft | 429 kts | 109° |
| 2026-04-30 13:42 | 39.10791 | 0.28100 | 33305 ft | 445 kts | 109° |
| 2026-04-30 13:43 | 39.09956 | 0.31961 | 32383 ft | 451 kts | 109° |
| 2026-04-30 13:43 | 39.09108 | 0.35882 | 31394 ft | 458 kts | 109° |
| 2026-04-30 13:43 | 39.08245 | 0.39865 | 30370 ft | 466 kts | 108° |
| 2026-04-30 13:43 | 39.07366 | 0.43919 | 29173 ft | 474 kts | 108° |
| 2026-04-30 13:44 | 39.06475 | 0.48032 | 28000 ft | 480 kts | 108° |
| 2026-04-30 13:44 | 39.05574 | 0.52187 | 26831 ft | 485 kts | 108° |
| 2026-04-30 13:44 | 39.04662 | 0.56390 | 25687 ft | 490 kts | 108° |
| 2026-04-30 13:44 | 39.03751 | 0.60574 | 25026 ft | 482 kts | 108° |
| 2026-04-30 13:45 | 39.02208 | 0.68924 | 23399 ft | 480 kts | 99° |
| 2026-04-30 13:45 | 39.01977 | 0.73189 | 22601 ft | 476 kts | 95° |
| 2026-04-30 13:45 | 39.01799 | 0.77417 | 21867 ft | 471 kts | 95° |
| 2026-04-30 13:46 | 39.01617 | 0.81605 | 21159 ft | 467 kts | 95° |
| 2026-04-30 13:46 | 39.01433 | 0.85748 | 20468 ft | 462 kts | 95° |
| 2026-04-30 13:46 | 39.01248 | 0.89854 | 19791 ft | 458 kts | 95° |
| 2026-04-30 13:46 | 39.01061 | 0.93920 | 19123 ft | 453 kts | 95° |
| 2026-04-30 13:47 | 39.00873 | 0.97949 | 18498 ft | 449 kts | 95° |
| 2026-04-30 13:47 | 39.00687 | 1.01935 | 17823 ft | 445 kts | 95° |
| 2026-04-30 13:47 | 39.00502 | 1.05887 | 17189 ft | 440 kts | 95° |
| 2026-04-30 13:47 | 39.00317 | 1.09794 | 16635 ft | 435 kts | 95° |
| 2026-04-30 13:48 | 39.00132 | 1.13654 | 16086 ft | 431 kts | 95° |
| 2026-04-30 13:48 | 39.00075 | 1.17486 | 15553 ft | 428 kts | 88° |
| 2026-04-30 13:48 | 39.00479 | 1.21206 | 15101 ft | 424 kts | 78° |
| 2026-04-30 13:48 | 39.01122 | 1.24831 | 14987 ft | 408 kts | 78° |
| 2026-04-30 13:49 | 39.01734 | 1.28376 | 14829 ft | 394 kts | 78° |
| 2026-04-30 13:49 | 39.02305 | 1.31766 | 14657 ft | 382 kts | 78° |
| 2026-04-30 13:49 | 39.02855 | 1.35060 | 14493 ft | 371 kts | 78° |
| 2026-04-30 13:49 | 39.03387 | 1.38255 | 14329 ft | 361 kts | 78° |
| 2026-04-30 13:50 | 39.03905 | 1.41375 | 14173 ft | 351 kts | 79° |
| 2026-04-30 13:50 | 39.04889 | 1.47335 | 13688 ft | 340 kts | 79° |
| 2026-04-30 13:50 | 39.05336 | 1.50331 | 13189 ft | 342 kts | 81° |
| 2026-04-30 13:51 | 39.05755 | 1.53338 | 12739 ft | 342 kts | 81° |
| 2026-04-30 13:51 | 39.06164 | 1.56352 | 12295 ft | 341 kts | 81° |
| 2026-04-30 13:51 | 39.06576 | 1.59362 | 11844 ft | 341 kts | 81° |
| 2026-04-30 13:51 | 39.07124 | 1.62336 | 11401 ft | 342 kts | 70° |
| 2026-04-30 13:52 | 39.08169 | 1.65075 | 10959 ft | 342 kts | 62° |
| 2026-04-30 13:52 | 39.09279 | 1.67774 | 10499 ft | 339 kts | 62° |
| 2026-04-30 13:52 | 39.10374 | 1.70437 | 10063 ft | 334 kts | 63° |
| 2026-04-30 13:52 | 39.11445 | 1.73077 | 9534 ft | 331 kts | 65° |
| 2026-04-30 13:53 | 39.11954 | 1.75906 | 9042 ft | 322 kts | 94° |
| 2026-04-30 13:53 | 39.11336 | 1.78564 | 8711 ft | 302 kts | 128° |
| 2026-04-30 13:53 | 39.09922 | 1.80277 | 8703 ft | 270 kts | 150° |
| 2026-04-30 13:53 | 39.08289 | 1.81319 | 8296 ft | 256 kts | 172° |
| 2026-04-30 13:54 | 39.06572 | 1.81269 | 7746 ft | 242 kts | 199° |
| 2026-04-30 13:54 | 39.05151 | 1.80246 | 7179 ft | 230 kts | 226° |
| 2026-04-30 13:54 | 39.04262 | 1.78634 | 6815 ft | 214 kts | 243° |
| 2026-04-30 13:54 | 39.03593 | 1.76989 | 6507 ft | 202 kts | 243° |
| 2026-04-30 13:55 | 39.02950 | 1.75414 | 6241 ft | 194 kts | 243° |
| 2026-04-30 13:55 | 39.02333 | 1.73906 | 5930 ft | 186 kts | 243° |
| 2026-04-30 13:55 | 39.01746 | 1.72471 | 5680 ft | 177 kts | 243° |
| 2026-04-30 13:55 | 39.01187 | 1.71105 | 5462 ft | 169 kts | 244° |
| 2026-04-30 13:56 | 39.00653 | 1.69800 | 5244 ft | 161 kts | 244° |
| 2026-04-30 13:56 | 39.00142 | 1.68552 | 5042 ft | 155 kts | 244° |
| 2026-04-30 13:56 | 38.99644 | 1.67337 | 4840 ft | 153 kts | 244° |
| 2026-04-30 13:56 | 38.99146 | 1.66121 | 4639 ft | 154 kts | 245° |
| 2026-04-30 13:57 | 38.98646 | 1.64900 | 4442 ft | 154 kts | 245° |
| 2026-04-30 13:57 | 38.98143 | 1.63674 | 4228 ft | 155 kts | 245° |
| 2026-04-30 13:57 | 38.97639 | 1.62446 | 4035 ft | 156 kts | 245° |
| 2026-04-30 13:57 | 38.97133 | 1.61213 | 3829 ft | 156 kts | 245° |
| 2026-04-30 13:58 | 38.96625 | 1.59974 | 3624 ft | 157 kts | 245° |
| 2026-04-30 13:58 | 38.95604 | 1.57489 | 3222 ft | 158 kts | 245° |
| 2026-04-30 13:58 | 38.95092 | 1.56245 | 3011 ft | 158 kts | 245° |
| 2026-04-30 13:59 | 38.94581 | 1.55004 | 2802 ft | 157 kts | 245° |
| 2026-04-30 13:59 | 38.94244 | 1.54184 | 2668 ft | 156 kts | 245° |
| 2026-04-30 13:59 | 38.93577 | 1.52562 | 2385 ft | 155 kts | 245° |
| 2026-04-30 13:59 | 38.93240 | 1.51745 | 2260 ft | 151 kts | 245° |
| 2026-04-30 14:00 | 38.92751 | 1.50557 | 2050 ft | 150 kts | 245° |
| 2026-04-30 14:00 | 38.91615 | 1.47801 | 1596 ft | 151 kts | 245° |
| 2026-04-30 14:00 | 38.91131 | 1.46627 | 1394 ft | 147 kts | 246° |
| 2026-04-30 14:01 | 38.90808 | 1.45844 | 1265 ft | 146 kts | 244° |
| 2026-04-30 14:01 | 38.90330 | 1.44685 | 1072 ft | 146 kts | 245° |
| 2026-04-30 14:01 | 38.89855 | 1.43534 | 888 ft | 146 kts | 245° |
| 2026-04-30 14:01 | 38.89381 | 1.42383 | 680 ft | 145 kts | 245° |
| 2026-04-30 14:02 | 38.88915 | 1.41251 | 517 ft | 142 kts | 242° |
| 2026-04-30 14:02 | 38.88442 | 1.40157 | 298 ft | 143 kts | 241° |
| 2026-04-30 14:02 | 38.87988 | 1.39017 | 127 ft | 143 kts | 242° |
| 2026-04-30 14:02 | 38.87535 | 1.37902 | 34 ft | 130 kts | 241° |
| 2026-04-30 14:03 | 38.87171 | 1.37048 | 29 ft | 75 kts | 243° |
| 2026-04-30 14:03 | 38.87097 | 1.36766 | 30 ft | 18 kts | 268° |
| 2026-04-30 14:03 | 38.87099 | 1.36631 | 30 ft | 11 kts | 271° |
| 2026-04-30 14:03 | 38.87125 | 1.36559 | 32 ft | 7 kts | 339° |
| 2026-04-30 14:04 | 38.87163 | 1.36576 | 33 ft | 8 kts | 49° |
| 2026-04-30 14:04 | 38.87198 | 1.36644 | 35 ft | 9 kts | 63° |
| 2026-04-30 14:04 | 38.87228 | 1.36719 | 36 ft | 9 kts | 63° |
| 2026-04-30 14:04 | 38.87258 | 1.36795 | 35 ft | 10 kts | 63° |
| 2026-04-30 14:05 | 38.87303 | 1.36846 | 38 ft | 8 kts | 4° |
| 2026-04-30 14:05 | 38.87350 | 1.36822 | 40 ft | 6 kts | 333° |
| 2026-04-30 14:05 | 38.87382 | 1.36801 | 40 ft | 4 kts | 333° |
| 2026-04-30 14:05 | 38.87402 | 1.36788 | 40 ft | 2 kts | 333° |
| 2026-04-30 14:06 | 38.87411 | 1.36782 | 41 ft | 1 kts | 335° |
| 2026-04-30 14:06 | 38.87438 | 1.36780 | 43 ft | 4 kts | 8° |
| 2026-04-30 14:07 | 38.87461 | 1.36787 | 44 ft | 0 kts | 13° |
| 2026-04-30 14:07 | 38.87467 | 1.36789 | 45 ft | 1 kts | 13° |
| 2026-04-30 14:07 | 38.87479 | 1.36793 | 45 ft | 4 kts | 14° |
| 2026-04-30 14:08 | 38.87492 | 1.36797 | 46 ft | 1 kts | 15° |
| 2026-04-30 14:08 | 38.87496 | 1.36798 | 46 ft | 1 kts | 15° |
| 2026-04-30 14:08 | 38.87512 | 1.36804 | 47 ft | 0 kts | 15° |